Eva Heron — DYTN — position and weather

sailwx.info

Track history (hours):
 
Tides and Currents Weather Stations Pressure Air Temp Water Temp Dewpoint Dewpoint Depression Visibility Wind Speed Wind Dir Waves Ship Positions

Eva Heron

Last reported at 2018-May-11 15:29 UTC. Time now 2018-May-27 17:49 UTC.
Position N 36°11' E 014°42'.
Warning: this ship's position is 16 days out of date.

Length 174 m; draft 11 m.

Type: Ship (hazmat cat B). MMSI: 548779000.

Date/timePositionNaut miles runAvg speedWind from/ knotsBaromVisibWave heightAir tempDewpointWater temp
2018-May-11 15:29N 36°11' E 014°42'612.4
2018-May-11 15:00N 36°13' E 014°35'612.4
2018-May-11 14:30N 36°15' E 014°27'612.5
2018-May-11 14:00N 36°17' E 014°20'612.7
2018-May-11 13:30N 36°19' E 014°13'612.7
2018-May-11 12:59N 36°21' E 014°05'612.7
2018-May-11 12:30N 36°24' E 013°58'713.0
2018-May-11 12:00N 36°26' E 013°51'  
2018-May-08 14:03N 36°01' W 005°12'114.8
2018-May-08 14:00N 36°01' W 005°13'815.2
2018-May-08 13:30N 35°59' W 005°22'  
Track history (hours):
 
Tides and Currents Weather Stations Pressure Air Temp Water Temp Dewpoint Dewpoint Depression Visibility Wind Speed Wind Dir Waves Ship Positions

Eva Heron

Last reported at 2018-May-11 15:29 UTC. Time now 2018-May-27 17:49 UTC.
Position N 36°11' E 014°42'.
Warning: this ship's position is 16 days out of date.

Length 174 m; draft 11 m.

Type: Ship (hazmat cat B). MMSI: 548779000.

Date/timePositionNaut miles runAvg speedWind from/ knotsBaromVisibWave heightAir tempDewpointWater temp
2018-May-11 15:29N 36°11' E 014°42'612.4
2018-May-11 15:00N 36°13' E 014°35'612.4
2018-May-11 14:30N 36°15' E 014°27'612.5
2018-May-11 14:00N 36°17' E 014°20'612.7
2018-May-11 13:30N 36°19' E 014°13'612.7
2018-May-11 12:59N 36°21' E 014°05'612.7
2018-May-11 12:30N 36°24' E 013°58'713.0
2018-May-11 12:00N 36°26' E 013°51'  
2018-May-08 14:03N 36°01' W 005°12'114.8
2018-May-08 14:00N 36°01' W 005°13'815.2
2018-May-08 13:30N 35°59' W 005°22'  

Dump ship's entire track history